Search for airport 
image banner adimage banner adimage banner ad
image banner ad

93IA - Lund

Located in Jewell, United States

ICAO - 93IA, IATA -

Data provided by Airmate  

General information

Coordinates: N42°15'37" W93°38'59"
Elevation is 1063 feet MSL.
 
View others Airports in Iowa

Operational data

Special qualification required
Current time UTC:
Current local time:
Weather at : KEBS - Webster City Muni ( 27 km )
METAR: KEBS 181635Z AUTO 09004KT 10SM CLR 27/15 A2986 RMK AO2
View NOTAMs / SUP AIP / TFR affecting this airport [VIEW]
Communications frequencies: [VIEW]

Runways:

RWY identifierQFULength (ft)Width (ft)SurfaceLDA (ft)
09260060GRASS
27260060GRASS

Airport contact information

Address: Jewell United States

Satellite view of 93IA